.
WxDataArchive / Data Records for 2006-04-20
2006-04-19 April 2006 2006-04-21

Data Records for Thursday, 20 April 2006

Time	Temp	Chill	HIndex	Humid	Dewpt	 Wind 	HiWind	WindDir	Rain 	Barom 
-----	----	-----	------	-----	-----	------	------	-------	-----	----- 
00:00	53.5	53.5	53.5	55	37.7	0	1	90	0.00	29.917 
00:05	52.9	52.9	52.9	55	37.2	0	0	---	0.00	29.917 
00:10	52.5	52.5	52.5	56	37.3	0	0	---	0.00	29.917 
00:15	51.9	51.9	51.9	57	37.1	0	0	---	0.00	29.916 
00:20	51.3	51.3	51.3	58	37.0	0	0	---	0.00	29.916 
00:25	50.8	50.8	50.8	60	37.4	0	0	---	0.00	29.916 
00:30	50.5	50.5	50.5	60	37.1	0	0	---	0.00	29.917 
00:35	50.2	50.2	50.2	61	37.3	0	0	---	0.00	29.917 
00:40	49.9	49.9	49.9	62	37.4	0	0	---	0.00	29.917 
00:45	49.8	49.8	49.8	62	37.3	0	0	---	0.00	29.917 
00:50	49.6	49.6	49.6	62	37.1	0	0	---	0.00	29.917 
00:55	49.5	49.5	49.5	63	37.4	0	0	---	0.00	29.917 
01:00	49.2	49.2	49.2	64	37.5	0	0	---	0.00	29.919 
01:05	49.1	49.1	49.1	64	37.5	0	0	---	0.00	29.919 
01:10	48.8	48.8	48.8	65	37.6	0	0	---	0.00	29.919 
01:15	48.3	48.3	48.3	66	37.5	0	0	---	0.00	29.918 
01:20	48.0	48.0	48.0	67	37.6	0	0	---	0.00	29.918 
01:25	47.9	47.9	47.9	67	37.5	0	0	---	0.00	29.918 
01:30	47.6	47.6	47.6	68	37.6	0	0	---	0.00	29.920 
01:35	47.4	47.4	47.4	69	37.7	0	0	---	0.00	29.920 
01:40	47.1	47.1	47.1	69	37.5	0	0	---	0.00	29.920 
01:45	46.8	46.8	46.8	70	37.5	0	0	---	0.00	29.921 
01:50	46.7	46.7	46.7	71	37.8	0	0	---	0.00	29.921 
01:55	46.5	46.5	46.5	72	38.0	0	0	---	0.00	29.921 
02:00	46.2	46.2	46.2	72	37.7	0	0	---	0.00	29.918 
02:05	46.1	46.1	46.1	73	37.9	0	0	---	0.00	29.918 
02:10	46.0	46.0	46.0	73	37.8	0	0	---	0.00	29.918 
02:15	45.8	45.8	45.8	73	37.6	0	0	---	0.00	29.915 
02:20	45.7	45.7	45.7	75	38.2	0	0	---	0.00	29.915 
02:25	45.5	45.5	45.5	75	38.0	0	0	---	0.00	29.915 
02:30	45.4	45.4	45.4	76	38.3	0	0	---	0.00	29.910 
02:35	45.4	45.4	45.4	76	38.3	0	0	---	0.00	29.910 
02:40	45.4	45.4	45.4	76	38.3	0	0	---	0.00	29.910 
02:45	45.2	45.2	45.2	76	38.1	0	0	---	0.00	29.909 
02:50	45.2	45.2	45.2	76	38.1	0	0	---	0.00	29.909 
02:55	45.1	45.1	45.1	76	38.0	0	0	---	0.00	29.909 
03:00	44.9	44.9	44.9	76	37.8	0	0	---	0.00	29.910 
03:05	44.8	44.8	44.8	76	37.7	0	0	---	0.00	29.910 
03:10	44.6	44.6	44.6	76	37.5	0	0	---	0.00	29.910 
03:15	44.6	44.6	44.6	76	37.5	0	0	---	0.00	29.908 
03:20	44.5	44.5	44.5	76	37.4	0	0	---	0.00	29.908 
03:25	44.2	44.2	44.2	76	37.1	0	0	---	0.00	29.908 
03:30	44.2	44.2	44.2	76	37.1	0	0	---	0.00	29.916 
03:35	44.1	44.1	44.1	76	37.0	0	0	---	0.00	29.916 
03:40	44.2	44.2	44.2	77	37.5	0	0	---	0.00	29.916 
03:45	44.1	44.1	44.1	77	37.4	0	0	---	0.00	29.913 
03:50	43.9	43.9	43.9	77	37.2	0	0	---	0.00	29.913 
03:55	43.8	43.8	43.8	77	37.1	0	0	---	0.00	29.913 
04:00	43.8	43.8	43.8	76	36.7	0	0	---	0.00	29.912 
04:05	44.1	44.1	44.1	74	36.4	0	0	---	0.00	29.912 
04:10	44.2	44.2	44.2	73	36.1	0	1	90	0.00	29.912 
04:15	44.3	44.3	44.3	73	36.2	0	0	---	0.00	29.911 
04:20	44.6	44.6	44.6	73	36.5	0	0	---	0.00	29.911 
04:25	44.8	44.8	44.8	72	36.3	0	0	---	0.00	29.911 
04:30	44.8	44.8	44.8	73	36.7	0	0	---	0.00	29.906 
04:35	44.8	44.8	44.8	73	36.7	0	0	---	0.00	29.906 
04:40	44.6	44.6	44.6	73	36.5	0	0	---	0.00	29.906 
04:45	44.8	44.8	44.8	73	36.7	0	0	---	0.00	29.903 
04:50	44.6	44.6	44.6	72	36.1	0	0	---	0.00	29.903 
04:55	44.6	44.6	44.6	72	36.1	0	0	---	0.00	29.903 
05:00	44.8	44.8	44.8	72	36.3	0	0	---	0.00	29.904 
05:05	44.9	44.9	44.9	72	36.4	0	1	90	0.00	29.904 
05:10	45.1	45.1	45.1	71	36.3	0	0	---	0.00	29.904 
05:15	45.2	45.2	45.2	71	36.4	0	0	---	0.00	29.903 
05:20	45.2	45.2	45.2	71	36.4	0	1	90	0.00	29.903 
05:25	45.5	45.5	45.5	70	36.3	0	1	90	0.00	29.903 
05:30	45.5	45.5	45.5	70	36.3	0	0	---	0.00	29.900 
05:35	45.5	45.5	45.5	70	36.3	0	0	---	0.00	29.900 
05:40	45.4	45.4	45.4	71	36.6	0	0	---	0.00	29.900 
05:45	45.1	45.1	45.1	71	36.3	0	0	---	0.00	29.900 
05:50	44.9	44.9	44.9	72	36.4	0	0	---	0.00	29.900 
05:55	44.9	44.9	44.9	72	36.4	0	0	---	0.00	29.900 
06:00	44.9	44.9	44.9	72	36.4	0	0	---	0.00	29.898 
06:05	44.9	44.9	44.9	72	36.4	0	0	---	0.00	29.898 
06:10	44.8	44.8	44.8	72	36.3	0	0	---	0.00	29.898 
06:15	44.5	44.5	44.5	72	36.0	0	0	---	0.00	29.904 
06:20	44.3	44.3	44.3	72	35.9	0	0	---	0.00	29.904 
06:25	44.1	44.1	44.1	73	36.0	0	0	---	0.00	29.904 
06:30	44.1	44.1	44.1	73	36.0	0	1	90	0.00	29.905 
06:35	44.2	44.2	44.2	73	36.1	0	1	90	0.00	29.905 
06:40	44.2	44.2	44.2	73	36.1	0	2	90	0.00	29.905 
06:45	44.3	44.3	44.3	73	36.2	0	1	90	0.00	29.904 
06:50	44.3	44.3	44.3	73	36.2	0	0	---	0.00	29.904 
06:55	44.3	44.3	44.3	73	36.2	0	0	---	0.00	29.904 
07:00	44.2	44.2	44.2	73	36.1	0	0	---	0.00	29.920 
07:05	44.1	44.1	44.1	73	36.0	0	0	---	0.00	29.920 
07:10	43.9	43.9	43.9	74	36.2	0	0	---	0.00	29.920 
07:15	43.8	43.8	43.8	75	36.4	0	1	90	0.00	29.929 
07:20	43.9	43.9	43.9	75	36.5	0	1	90	0.00	29.929 
07:25	44.3	44.3	44.3	74	36.5	0	1	90	0.00	29.929 
07:30	44.8	44.8	44.8	72	36.3	1	2	90	0.00	29.936 
07:35	45.4	45.4	45.4	73	37.3	0	1	90	0.00	29.936 
07:40	46.0	46.0	46.0	70	36.8	1	2	90	0.00	29.936 
07:45	46.7	46.7	46.7	70	37.4	1	3	90	0.00	29.937 
07:50	47.1	47.1	47.1	69	37.5	1	2	90	0.00	29.937 
07:55	47.6	47.6	47.6	69	37.9	1	2	90	0.00	29.937 
08:00	47.9	47.9	47.9	68	37.9	1	3	90	0.00	29.938 
08:05	48.0	48.0	48.0	69	38.3	1	3	90	0.00	29.938 
08:10	48.6	48.6	48.6	67	38.1	1	2	90	0.00	29.938 
08:15	49.4	49.4	49.4	66	38.5	1	2	90	0.00	29.951 
08:20	49.8	49.8	49.8	65	38.5	2	5	90	0.00	29.951 
08:25	50.1	50.1	50.1	65	38.8	2	5	90	0.00	29.951 
08:30	50.1	50.1	50.1	66	39.2	2	5	112	0.00	29.952 
08:35	50.5	50.5	50.5	66	39.6	1	3	112	0.00	29.952 
08:40	51.1	51.1	51.1	66	40.1	1	3	112	0.00	29.952 
08:45	51.6	51.6	51.6	64	39.8	2	4	112	0.00	29.952 
08:50	51.7	51.7	51.7	64	39.9	2	4	90	0.00	29.952 
08:55	52.0	52.0	52.0	66	41.0	1	4	90	0.00	29.952 
09:00	52.5	52.5	52.5	63	40.3	1	4	90	0.00	29.944 
09:05	53.2	53.2	53.2	63	40.9	2	3	90	0.00	29.944 
09:10	53.6	53.6	53.6	63	41.3	2	5	90	0.00	29.944 
09:15	53.9	53.9	53.9	64	42.0	2	4	112	0.00	29.940 
09:20	54.5	54.5	54.5	61	41.3	2	3	112	0.00	29.940 
09:25	55.4	55.4	55.4	59	41.3	2	4	90	0.00	29.940 
09:30	55.9	55.9	55.9	62	43.1	2	4	90	0.00	29.940 
09:35	56.0	56.0	56.0	61	42.7	2	4	90	0.00	29.940 
09:40	56.5	56.5	56.5	59	42.3	2	3	90	0.00	29.940 
09:45	57.0	57.0	57.0	58	42.4	2	4	112	0.00	29.937 
09:50	57.6	57.6	57.6	58	42.9	2	3	112	0.00	29.937 
09:55	58.3	58.3	58.3	58	43.6	2	4	90	0.00	29.937 
10:00	58.9	58.9	58.9	56	43.2	1	3	90	0.00	29.926 
10:05	59.3	59.3	59.3	56	43.6	1	3	90	0.00	29.926 
10:10	59.5	59.5	59.5	54	42.8	2	4	112	0.00	29.926 
10:15	59.8	59.8	59.8	55	43.6	1	3	112	0.00	29.929 
10:20	59.9	59.9	59.9	55	43.7	1	4	90	0.00	29.929 
10:25	60.2	60.2	60.2	54	43.5	1	3	112	0.00	29.929 
10:30	60.9	60.9	60.9	55	44.6	0	2	112	0.00	29.929 
10:35	61.3	61.3	61.3	53	44.0	1	2	112	0.00	29.929 
10:40	61.8	61.8	61.8	54	45.0	1	3	112	0.00	29.929 
10:45	62.6	62.6	62.6	52	44.7	1	3	68	0.00	29.929 
10:50	63.2	63.2	63.2	50	44.2	2	5	90	0.00	29.929 
10:55	63.4	63.4	63.4	51	45.0	2	5	90	0.00	29.929 
11:00	63.5	63.5	63.5	51	45.0	2	4	112	0.00	29.923 
11:05	63.7	63.7	63.7	53	46.2	2	4	112	0.00	29.923 
11:10	64.2	64.2	64.2	48	44.1	2	4	112	0.00	29.923 
11:15	65.0	65.0	65.0	47	44.3	3	6	112	0.00	29.918 
11:20	65.5	65.5	65.5	46	44.2	2	6	112	0.00	29.918 
11:25	66.0	66.0	66.0	46	44.6	1	4	112	0.00	29.918 
11:30	66.6	66.6	66.6	48	46.3	1	2	112	0.00	29.927 
11:35	67.6	67.6	67.6	43	44.3	1	4	112	0.00	29.927 
11:40	68.4	68.4	68.4	44	45.6	1	4	90	0.00	29.927 
11:45	68.9	68.9	68.9	43	45.5	2	4	90	0.00	29.919 
11:50	69.6	69.6	69.6	41	44.8	2	4	90	0.00	29.919 
11:55	70.3	70.3	70.3	42	46.1	2	4	112	0.00	29.919 
12:00	70.8	70.8	70.8	38	43.9	2	5	112	0.00	29.910 
12:05	71.3	71.3	71.3	38	44.4	1	4	112	0.00	29.910 
12:10	71.8	71.8	71.8	37	44.1	1	5	90	0.00	29.910 
12:15	72.3	72.3	72.3	35	43.1	1	3	112	0.00	29.902 
12:20	72.7	72.7	72.7	35	43.5	2	4	112	0.00	29.902 
12:25	72.8	72.8	72.8	34	42.8	1	4	68	0.00	29.902 
12:30	73.3	73.3	73.3	35	44.0	1	2	135	0.00	29.897 
12:35	73.7	73.7	73.7	32	42.0	1	3	135	0.00	29.897 
12:40	73.7	73.7	73.7	33	42.8	1	3	248	0.00	29.897 
12:45	74.0	74.0	74.0	35	44.6	1	3	202	0.00	29.892 
12:50	74.4	74.4	74.4	30	40.9	2	5	112	0.00	29.892 
12:55	74.6	74.6	74.6	31	42.0	1	4	90	0.00	29.892 
13:00	74.9	74.9	74.9	30	41.4	1	3	90	0.00	29.883 
13:05	74.9	74.9	74.9	33	43.8	1	4	112	0.00	29.883 
13:10	74.9	74.9	74.9	33	43.8	2	6	112	0.00	29.883 
13:15	74.9	74.9	74.9	29	40.5	1	3	90	0.00	29.890 
13:20	74.7	74.7	74.7	32	42.9	1	3	248	0.00	29.890 
13:25	74.9	74.9	74.9	35	45.4	1	3	112	0.00	29.890 
13:30	75.4	75.4	77.1	31	42.6	1	3	158	0.00	29.888 
13:35	75.4	75.4	77.2	32	43.5	2	5	270	0.00	29.888 
13:40	75.6	75.6	77.4	35	46.0	2	5	248	0.00	29.888 
13:45	75.8	75.8	77.4	33	44.6	1	4	248	0.00	29.889 
13:50	75.8	75.8	77.4	33	44.6	2	4	90	0.00	29.889 
13:55	75.8	75.8	77.5	34	45.4	2	4	248	0.00	29.889 
14:00	76.0	76.0	77.5	34	45.6	1	3	45	0.00	29.884 
14:05	76.1	76.1	77.6	34	45.7	2	5	248	0.00	29.884 
14:10	76.1	76.1	77.6	35	46.4	2	6	248	0.00	29.884 
14:15	76.3	76.3	77.5	32	44.3	2	5	248	0.00	29.888 
14:20	76.3	76.3	77.5	32	44.3	1	4	248	0.00	29.888 
14:25	76.5	76.5	77.9	37	48.3	1	4	45	0.00	29.888 
14:30	76.3	76.3	77.6	33	45.1	2	3	90	0.00	29.884 
14:35	76.5	76.5	77.7	33	45.2	1	2	225	0.00	29.884 
14:40	76.7	76.7	77.9	36	47.7	2	5	112	0.00	29.884 
14:45	76.5	76.5	77.7	34	46.0	1	4	90	0.00	29.881 
14:50	76.7	76.7	77.8	34	46.2	1	4	112	0.00	29.881 
14:55	76.7	76.7	77.7	33	45.4	2	5	90	0.00	29.881 
15:00	76.5	76.5	77.6	32	44.4	2	5	112	0.00	29.877 
15:05	76.5	76.5	77.9	37	48.3	1	4	112	0.00	29.877 
15:10	76.7	76.7	77.6	31	43.8	1	3	90	0.00	29.877 
15:15	77.0	77.0	78.0	36	48.0	1	3	90	0.00	29.870 
15:20	77.4	77.4	78.3	37	49.1	1	4	90	0.00	29.870 
15:25	77.7	77.7	78.0	31	44.6	1	3	90	0.00	29.870 
15:30	77.9	77.9	78.4	35	48.0	1	3	112	0.00	29.868 
15:35	78.1	78.1	78.2	31	45.0	2	5	112	0.00	29.868 
15:40	77.9	77.9	78.1	30	43.9	2	6	90	0.00	29.868 
15:45	77.9	77.9	78.3	33	46.5	1	5	90	0.00	29.862 
15:50	77.9	77.9	78.1	30	43.9	2	4	112	0.00	29.862 
15:55	78.1	78.1	78.2	30	44.1	1	3	315	0.00	29.862 
16:00	78.1	78.1	78.0	27	41.4	2	5	90	0.00	29.855 
16:05	78.1	78.1	78.0	28	42.3	2	4	248	0.00	29.855 
16:10	78.1	78.1	78.1	29	43.2	1	3	112	0.00	29.855 
16:15	78.3	78.3	78.1	28	42.5	1	4	112	0.00	29.850 
16:20	78.5	78.5	78.3	29	43.6	1	3	112	0.00	29.850 
16:25	78.1	78.1	78.0	28	42.3	2	4	248	0.00	29.850 
16:30	78.1	78.1	78.1	29	43.2	1	4	248	0.00	29.838 
16:35	78.3	78.3	78.2	29	43.4	1	4	270	0.00	29.838 
16:40	78.1	78.1	78.0	28	42.3	3	6	112	0.00	29.838 
16:45	77.7	77.7	78.0	30	43.8	2	5	90	0.00	29.837 
16:50	77.4	77.4	78.1	34	46.8	1	2	90	0.00	29.837 
16:55	77.2	77.2	77.8	30	43.3	1	3	90	0.00	29.837 
17:00	77.2	77.2	77.7	29	42.5	2	5	112	0.00	29.836 
17:05	77.4	77.4	77.8	30	43.5	1	3	90	0.00	29.836 
17:10	77.4	77.4	77.9	31	44.4	2	7	112	0.00	29.836 
17:15	77.6	77.6	77.9	29	42.8	1	5	112	0.00	29.835 
17:20	77.7	77.7	77.9	29	42.9	2	5	112	0.00	29.835 
17:25	77.7	77.7	78.0	30	43.8	1	2	112	0.00	29.835 
17:30	77.6	77.6	77.9	29	42.8	2	4	90	0.00	29.836 
17:35	77.6	77.6	77.9	29	42.8	1	3	135	0.00	29.836 
17:40	77.7	77.7	77.9	29	42.9	1	4	112	0.00	29.836 
17:45	77.6	77.6	77.9	29	42.8	2	4	135	0.00	29.836 
17:50	77.2	77.2	77.6	27	40.6	2	5	112	0.00	29.836 
17:55	77.0	77.0	77.6	29	42.3	2	5	112	0.00	29.836 
18:00	77.0	77.0	77.6	29	42.3	2	4	112	0.00	29.835 
18:05	76.8	76.8	77.7	31	43.9	2	5	112	0.00	29.835 
18:10	76.8	76.8	77.5	28	41.2	2	5	112	0.00	29.835 
18:15	76.7	76.7	77.6	31	43.8	0	2	112	0.00	29.838 
18:20	76.5	76.5	77.5	30	42.7	1	4	112	0.00	29.838 
18:25	76.3	76.3	77.4	30	42.6	1	4	112	0.00	29.838 
18:30	76.1	76.1	77.4	31	43.3	1	4	112	0.00	29.840 
18:35	76.1	76.1	77.4	31	43.3	2	6	112	0.00	29.840 
18:40	75.8	75.8	77.4	33	44.6	2	7	90	0.00	29.840 
18:45	75.4	75.4	77.3	34	45.1	2	7	90	0.00	29.842 
18:50	75.1	75.1	77.2	34	44.8	2	4	90	0.00	29.842 
18:55	74.9	74.9	74.9	34	44.6	1	4	90	0.00	29.842 
19:00	74.6	74.6	74.6	36	45.9	1	2	68	0.00	29.840 
19:05	74.4	74.4	74.4	39	47.8	0	2	90	0.00	29.840 
19:10	74.0	74.0	74.0	38	46.8	1	5	90	0.00	29.840 
19:15	73.9	73.9	73.9	38	46.7	2	5	248	0.00	29.842 
19:20	73.9	73.9	73.9	38	46.7	1	3	248	0.00	29.842 
19:25	73.5	73.5	73.5	39	47.0	1	3	248	0.00	29.842 
19:30	73.3	73.3	73.3	40	47.5	1	5	248	0.00	29.843 
19:35	73.2	73.2	73.2	41	48.1	0	1	292	0.00	29.843 
19:40	72.7	72.7	72.7	41	47.6	0	1	292	0.00	29.843 
19:45	72.3	72.3	72.3	42	47.9	0	2	292	0.00	29.840 
19:50	72.1	72.1	72.1	43	48.4	0	2	292	0.00	29.840 
19:55	71.8	71.8	71.8	43	48.1	0	1	292	0.00	29.840 
20:00	71.6	71.6	71.6	43	47.9	0	1	292	0.00	29.837 
20:05	71.5	71.5	71.5	42	47.2	0	2	292	0.00	29.837 
20:10	71.5	71.5	71.5	43	47.8	0	1	292	0.00	29.837 
20:15	71.5	71.5	71.5	43	47.8	0	2	292	0.00	29.835 
20:20	71.5	71.5	71.5	43	47.8	0	2	292	0.00	29.835 
20:25	71.3	71.3	71.3	43	47.6	0	1	292	0.00	29.835 
20:30	71.1	71.1	71.1	43	47.5	0	1	292	0.00	29.836 
20:35	70.9	70.9	70.9	45	48.5	0	0	---	0.00	29.836 
20:40	70.6	70.6	70.6	45	48.2	0	1	292	0.00	29.836 
20:45	70.3	70.3	70.3	46	48.5	0	0	---	0.00	29.849 
20:50	70.1	70.1	70.1	47	48.9	0	0	---	0.00	29.849 
20:55	69.8	69.8	69.8	48	49.2	0	0	---	0.00	29.849 
21:00	69.6	69.6	69.6	48	49.0	0	0	---	0.00	29.849 
21:05	69.4	69.4	69.4	49	49.4	0	1	292	0.00	29.849 
21:10	69.3	69.3	69.3	50	49.8	0	0	---	0.00	29.849 
21:15	69.1	69.1	69.1	50	49.7	0	0	---	0.00	29.846 
21:20	68.9	68.9	68.9	51	50.0	0	2	292	0.00	29.846 
21:25	68.8	68.8	68.8	51	49.9	0	2	270	0.00	29.846 
21:30	68.8	68.8	68.8	54	51.5	1	4	270	0.00	29.854 
21:35	68.8	68.8	68.8	55	52.0	2	4	248	0.00	29.854 
21:40	68.8	68.8	68.8	57	52.9	2	5	248	0.00	29.854 
21:45	68.8	68.8	68.8	59	53.9	2	6	248	0.00	29.859 
21:50	68.6	68.6	68.6	61	54.6	3	6	248	0.00	29.859 
21:55	68.4	68.4	68.4	62	54.9	2	5	248	0.00	29.859 
22:00	68.3	68.3	68.3	63	55.2	2	10	248	0.00	29.862 
22:05	67.9	67.9	67.9	64	55.3	3	9	248	0.00	29.862 
22:10	67.8	67.8	67.8	65	55.6	2	5	248	0.00	29.862 
22:15	67.4	67.4	67.4	67	56.1	3	7	248	0.00	29.860 
22:20	67.3	67.3	67.3	68	56.4	4	11	248	0.00	29.860 
22:25	66.9	66.9	66.9	69	56.4	3	5	248	0.00	29.860 
22:30	66.6	66.6	66.6	70	56.5	2	5	248	0.00	29.855 
22:35	66.4	66.4	66.4	71	56.7	3	7	248	0.00	29.855 
22:40	66.3	66.3	66.3	71	56.6	3	6	248	0.00	29.855 
22:45	66.1	66.1	66.1	72	56.8	4	9	248	0.00	29.847 
22:50	66.0	66.0	66.0	73	57.1	3	10	248	0.00	29.847 
22:55	65.6	65.6	65.6	73	56.7	2	5	248	0.00	29.847 
23:00	65.3	65.3	65.3	74	56.8	2	5	248	0.00	29.846 
23:05	65.2	65.2	65.2	75	57.1	1	3	248	0.00	29.846 
23:10	64.8	64.8	64.8	75	56.7	2	3	248	0.00	29.846 
23:15	64.7	64.7	64.7	76	57.0	1	5	248	0.00	29.841 
23:20	64.5	64.5	64.5	76	56.8	1	3	248	0.00	29.841 
23:25	64.3	64.3	64.3	77	56.9	2	3	248	0.00	29.841 
23:30	64.2	64.2	64.2	77	56.8	0	2	248	0.00	29.842 
23:35	63.9	63.9	63.9	77	56.5	1	3	248	0.00	29.842 
23:40	63.7	63.7	63.7	78	56.7	1	3	248	0.00	29.842 
23:45	63.5	63.5	63.5	78	56.5	1	3	248	0.00	29.843 
23:50	63.4	63.4	63.4	79	56.8	0	2	248	0.00	29.843 
23:55	63.4	63.4	63.4	79	56.8	1	2	248	0.00	29.843 

CoCoRaHS
IN-AL-39
A2 Web Hosting
Creative Commons License
GoDaddy
Look for:

loaded 2017-12-12 16:58:20 • last modified 2010-11-18 10:43:29
Privacy PolicyDisclaimer
• wx.awcolley.com is powered by PmWiki v.2002016 •
• all content (unless otherwise noted) © 2017 A W Colley